Terminal Aerodrome Forecast
Issued by NWS Wilmington, NC

Home | Current Version | Previous Version | Text Only | Print | Product List | Glossary On
Versions: 1 2 3 4 5 6 7 8 9 10 11 12 13 14 15 16 17 18
885
FTUS42 KILM 310520
TAFLBT
TAF
KLBT 310520Z 3106/0106 VRB03KT P6SM FEW050 SCT150
     FM311300 08007KT P6SM VCSH FEW050 BKN200
     FM311800 11006KT P6SM VCTS SCT050CB BKN120
     FM312300 09003KT P6SM BKN250=

USA.gov is the U.S. government's official web portal to all federal, state and local government web resources and services.